sensor_id;sensor_type;location;lat;lon;timestamp;pressure;altitude;pressure_sealevel;temperature;humidity
61484;BME280;47349;55.640;37.692;2022-08-11T05:52:26;100169.66;;;18.88;59.60
61484;BME280;47349;55.640;37.692;2022-08-11T05:55:47;100174.56;;;19.05;58.77
61484;BME280;47349;55.640;37.692;2022-08-11T05:59:33;100208.56;;;19.45;59.03
61484;BME280;47349;55.640;37.692;2022-08-11T06:02:19;100189.13;;;19.42;59.38
61484;BME280;47349;55.640;37.692;2022-08-11T06:06:21;100173.94;;;19.34;59.14
61484;BME280;47349;55.640;37.692;2022-08-11T06:10:28;100175.22;;;19.57;58.42
61484;BME280;47349;55.640;37.692;2022-08-11T06:14:07;100210.28;;;19.90;56.90
61484;BME280;47349;55.640;37.692;2022-08-11T06:18:11;100159.72;;;19.82;57.01
61484;BME280;47349;55.640;37.692;2022-08-11T06:21:35;100175.16;;;19.88;56.57
61484;BME280;47349;55.640;37.692;2022-08-11T06:24:31;100192.34;;;20.07;56.14
61484;BME280;47349;55.640;37.692;2022-08-11T06:28:57;100215.72;;;20.33;56.65
61484;BME280;47349;55.640;37.692;2022-08-11T06:34:12;100191.81;;;20.35;56.67
61484;BME280;47349;55.640;37.692;2022-08-11T06:43:34;100175.16;;;20.43;54.57
61484;BME280;47349;55.640;37.692;2022-08-11T18:00:39;100008.31;;;23.75;41.09
61484;BME280;47349;55.640;37.692;2022-08-11T18:03:24;99988.69;;;23.62;40.77
61484;BME280;47349;55.640;37.692;2022-08-11T18:06:43;99999.34;;;23.63;40.18
61484;BME280;47349;55.640;37.692;2022-08-11T18:09:30;100028.69;;;23.84;39.65
61484;BME280;47349;55.640;37.692;2022-08-11T18:13:58;100036.13;;;23.89;39.59
61484;BME280;47349;55.640;37.692;2022-08-11T18:18:02;100037.47;;;23.87;38.91
61484;BME280;47349;55.640;37.692;2022-08-11T18:21:32;100048.84;;;23.78;39.30
61484;BME280;47349;55.640;37.692;2022-08-11T18:24:48;100047.78;;;23.63;40.25
61484;BME280;47349;55.640;37.692;2022-08-11T18:29:12;100044.78;;;23.42;40.99
61484;BME280;47349;55.640;37.692;2022-08-11T18:32:57;100048.88;;;23.23;42.26
61484;BME280;47349;55.640;37.692;2022-08-11T18:37:09;100052.44;;;23.06;42.51
61484;BME280;47349;55.640;37.692;2022-08-11T18:42:04;100054.75;;;22.98;41.72
61484;BME280;47349;55.640;37.692;2022-08-11T18:45:38;100052.41;;;22.90;42.33
61484;BME280;47349;55.640;37.692;2022-08-11T18:48:59;100051.97;;;22.81;42.71
61484;BME280;47349;55.640;37.692;2022-08-11T18:52:16;100062.59;;;22.77;44.20
61484;BME280;47349;55.640;37.692;2022-08-11T18:56:40;100053.13;;;22.85;43.53
61484;BME280;47349;55.640;37.692;2022-08-11T19:01:05;100046.19;;;22.77;43.91
61484;BME280;47349;55.640;37.692;2022-08-11T19:04:43;100066.72;;;22.80;44.57
61484;BME280;47349;55.640;37.692;2022-08-11T19:08:00;100061.56;;;22.67;44.60
61484;BME280;47349;55.640;37.692;2022-08-11T19:11:54;100062.53;;;22.61;44.49
61484;BME280;47349;55.640;37.692;2022-08-11T19:15:21;100059.72;;;22.55;44.42
61484;BME280;47349;55.640;37.692;2022-08-11T19:18:49;100061.19;;;22.46;44.95
61484;BME280;47349;55.640;37.692;2022-08-11T19:22:36;100025.84;;;22.11;45.17
61484;BME280;47349;55.640;37.692;2022-08-11T19:26:00;100050.13;;;22.24;45.04
61484;BME280;47349;55.640;37.692;2022-08-11T19:29:12;100042.66;;;22.20;45.31
61484;BME280;47349;55.640;37.692;2022-08-11T19:33:03;100062.66;;;22.37;44.89
61484;BME280;47349;55.640;37.692;2022-08-11T19:37:03;100077.94;;;22.38;44.86
61484;BME280;47349;55.640;37.692;2022-08-11T19:41:18;100073.09;;;22.40;44.67
61484;BME280;47349;55.640;37.692;2022-08-11T19:49:28;100039.09;;;22.07;45.22
61484;BME280;47349;55.640;37.692;2022-08-11T19:52:53;100053.50;;;22.15;45.38
61484;BME280;47349;55.640;37.692;2022-08-11T19:56:02;100063.91;;;22.18;45.62
61484;BME280;47349;55.640;37.692;2022-08-11T20:00:25;100090.84;;;22.26;45.26
61484;BME280;47349;55.640;37.692;2022-08-11T20:03:50;100080.66;;;22.21;45.40
61484;BME280;47349;55.640;37.692;2022-08-11T20:08:07;100065.81;;;22.05;45.58
61484;BME280;47349;55.640;37.692;2022-08-11T20:12:31;100068.22;;;21.90;45.60
61484;BME280;47349;55.640;37.692;2022-08-11T20:15:38;100043.34;;;21.75;46.52
61484;BME280;47349;55.640;37.692;2022-08-11T20:19:24;100066.56;;;21.89;46.43
61484;BME280;47349;55.640;37.692;2022-08-11T20:23:31;100087.88;;;22.04;46.74
61484;BME280;47349;55.640;37.692;2022-08-11T20:26:59;100084.00;;;21.88;46.87
61484;BME280;47349;55.640;37.692;2022-08-11T20:31:20;100099.31;;;21.89;47.34
61484;BME280;47349;55.640;37.692;2022-08-11T20:36:18;100048.81;;;21.51;47.52
61484;BME280;47349;55.640;37.692;2022-08-11T20:40:46;100099.59;;;21.76;47.36
61484;BME280;47349;55.640;37.692;2022-08-11T20:43:57;100043.25;;;21.46;47.14
61484;BME280;47349;55.640;37.692;2022-08-11T20:47:02;100060.22;;;21.48;47.70
61484;BME280;47349;55.640;37.692;2022-08-11T20:50:54;100053.44;;;21.51;47.96
61484;BME280;47349;55.640;37.692;2022-08-11T23:04:09;100126.72;;;19.79;55.06
61484;BME280;47349;55.640;37.692;2022-08-11T23:08:04;100126.03;;;19.83;54.47
61484;BME280;47349;55.640;37.692;2022-08-11T23:11:23;100120.88;;;19.75;54.21
61484;BME280;47349;55.640;37.692;2022-08-11T23:15:28;100092.25;;;19.47;53.85
61484;BME280;47349;55.640;37.692;2022-08-11T23:19:22;100128.09;;;19.63;54.15
61484;BME280;47349;55.640;37.692;2022-08-11T23:22:59;100162.88;;;19.61;53.99
61484;BME280;47349;55.640;37.692;2022-08-11T23:26:12;100125.03;;;19.34;54.14
61484;BME280;47349;55.640;37.692;2022-08-11T23:29:50;100151.00;;;19.48;54.19
61484;BME280;47349;55.640;37.692;2022-08-11T23:34:12;100145.88;;;19.40;54.23
61484;BME280;47349;55.640;37.692;2022-08-11T23:39:00;100124.13;;;19.15;55.16
61484;BME280;47349;55.640;37.692;2022-08-11T23:42:24;100157.25;;;19.31;54.42
61484;BME280;47349;55.640;37.692;2022-08-11T23:46:27;100167.44;;;19.35;54.54
61484;BME280;47349;55.640;37.692;2022-08-11T23:49:37;100153.13;;;19.21;55.13
61484;BME280;47349;55.640;37.692;2022-08-11T23:53:50;100157.28;;;19.24;54.83
61484;BME280;47349;55.640;37.692;2022-08-11T23:57:30;100131.38;;;18.96;55.34
